PWSweather.com
Personal Weather Stations
Station Observations
NBW76
Silver Creek, North Bend, WA 98065

Silver CreekNorth Bend, WA 98065

Lat: 47.4993612, Lon: -121.7783245

Elevation: 443

Station Type: Davisd VP2 + Solar + UV + Webcam

www.northbendweather.com

High Low Average
Temperature 46.0°F7.8°C 37.8°F3.2°C 41.7°F5.4°C
Dew Point 36.1°F2.3°C 29.0°F-1.7°C 33.2°F0.7°C
Winds 18.4 mph 29.6 kmh 8.1 mph 13.0 kmh 12.0 mph ESE19.3 kmh ESE
Wind Gusts 31.1 mph50.1 kmh 10.4 mph16.7 kmh 19.0 mph30.6 kmh
Humidity 88% 55% 73%
Pressure 30.25 in1024.4 mb 30.09 in1019.0 mb -
Precipitation 1.20 in30.5 mm - -
Hour Temp Dew Point Humidity Winds Wind Gusts Pressure Precip Precip Rate Daily Precip Total
12:00 AM 43.7°F6.5°C 29.5°F-1.4°C 57% 10.4 mph ESE16.7 kmh ESE 19.6 mph31.5 kmh 30.25 in1024.4 mb - 0.00 in0.0 mm 0.00 in0.0 mm
12:10 AM 43.8°F6.6°C 29.1°F-1.6°C 56% 13.8 mph ESE22.2 kmh ESE 13.8 mph22.2 kmh 30.25 in1024.4 mb - 0.00 in0.0 mm 0.00 in0.0 mm
12:20 AM 43.8°F6.6°C 29.6°F-1.3°C 57% 13.8 mph SE22.2 kmh SE 25.3 mph40.7 kmh 30.25 in1024.4 mb - 0.00 in0.0 mm 0.00 in0.0 mm
12:30 AM 44.2°F6.8°C 29.9°F-1.2°C 57% 12.7 mph SE20.4 kmh SE 18.4 mph29.6 kmh 30.25 in1024.4 mb - 0.00 in0.0 mm 0.00 in0.0 mm
12:40 AM 44.1°F6.7°C 29.4°F-1.4°C 56% 9.2 mph ESE14.8 kmh ESE 18.4 mph29.6 kmh 30.24 in1024.0 mb - 0.00 in0.0 mm 0.00 in0.0 mm
12:50 AM 43.9°F6.6°C 29.6°F-1.3°C 57% 12.7 mph ESE20.4 kmh ESE 19.6 mph31.5 kmh 30.23 in1023.7 mb - 0.00 in0.0 mm 0.00 in0.0 mm
01:00 AM 43.7°F6.5°C 29.0°F-1.7°C 56% 15.0 mph ESE24.1 kmh ESE 21.9 mph35.2 kmh 30.23 in1023.7 mb - 0.00 in0.0 mm 0.00 in0.0 mm
01:10 AM 44.0°F6.7°C 29.3°F-1.5°C 56% 15.0 mph SE24.1 kmh SE 25.3 mph40.7 kmh 30.23 in1023.7 mb - 0.00 in0.0 mm 0.00 in0.0 mm
01:20 AM 44.4°F6.9°C 29.7°F-1.3°C 56% 15.0 mph ESE24.1 kmh ESE 23.0 mph37.0 kmh 30.23 in1023.7 mb - 0.00 in0.0 mm 0.00 in0.0 mm
01:30 AM 44.5°F6.9°C 29.8°F-1.2°C 56% 11.5 mph SE18.5 kmh SE 19.6 mph31.5 kmh 30.22 in1023.4 mb - 0.00 in0.0 mm 0.00 in0.0 mm
01:40 AM 44.5°F6.9°C 29.8°F-1.2°C 56% 12.7 mph ESE20.4 kmh ESE 20.7 mph33.3 kmh 30.22 in1023.4 mb - 0.00 in0.0 mm 0.00 in0.0 mm
01:50 AM 44.9°F7.2°C 29.7°F-1.3°C 55% 16.1 mph ESE25.9 kmh ESE 18.4 mph29.6 kmh 30.23 in1023.7 mb - 0.00 in0.0 mm 0.00 in0.0 mm
02:00 AM 45.1°F7.3°C 29.9°F-1.2°C 55% 13.8 mph ESE22.2 kmh ESE 21.9 mph35.2 kmh 30.22 in1023.4 mb - 0.00 in0.0 mm 0.00 in0.0 mm
02:10 AM 45.0°F7.2°C 29.8°F-1.2°C 55% 16.1 mph SE25.9 kmh SE 21.9 mph35.2 kmh 30.22 in1023.4 mb - 0.00 in0.0 mm 0.00 in0.0 mm
02:20 AM 45.4°F7.4°C 30.2°F-1.0°C 55% 13.8 mph SE22.2 kmh SE 21.9 mph35.2 kmh 30.21 in1023.0 mb - 0.00 in0.0 mm 0.00 in0.0 mm
02:30 AM 44.9°F7.2°C 30.2°F-1.0°C 56% 13.8 mph ESE22.2 kmh ESE 20.7 mph33.3 kmh 30.21 in1023.0 mb - 0.00 in0.0 mm 0.00 in0.0 mm
02:40 AM 45.1°F7.3°C 30.3°F-0.9°C 56% 15.0 mph ESE24.1 kmh ESE 17.3 mph27.8 kmh 30.21 in1023.0 mb - 0.00 in0.0 mm 0.00 in0.0 mm
02:50 AM 45.2°F7.3°C 29.9°F-1.2°C 55% 15.0 mph ESE24.1 kmh ESE 20.7 mph33.3 kmh 30.21 in1023.0 mb - 0.00 in0.0 mm 0.00 in0.0 mm
03:00 AM 45.4°F7.4°C 30.6°F-0.8°C 56% 13.8 mph ESE22.2 kmh ESE 20.7 mph33.3 kmh 30.21 in1023.0 mb - 0.00 in0.0 mm 0.00 in0.0 mm
03:10 AM 45.1°F7.3°C 30.3°F-0.9°C 56% 13.8 mph ESE22.2 kmh ESE 15.0 mph24.1 kmh 30.20 in1022.7 mb - 0.00 in0.0 mm 0.00 in0.0 mm
03:20 AM 45.0°F7.2°C 30.2°F-1.0°C 56% 12.7 mph E20.4 kmh E 17.3 mph27.8 kmh 30.20 in1022.7 mb - 0.00 in0.0 mm 0.00 in0.0 mm
03:30 AM 45.1°F7.3°C 30.3°F-0.9°C 56% 16.1 mph ESE25.9 kmh ESE 24.2 mph38.9 kmh 30.19 in1022.4 mb - 0.00 in0.0 mm 0.00 in0.0 mm
03:40 AM 45.0°F7.2°C 30.2°F-1.0°C 56% 13.8 mph ESE22.2 kmh ESE 20.7 mph33.3 kmh 30.18 in1022.0 mb - 0.00 in0.0 mm 0.00 in0.0 mm
03:50 AM 45.0°F7.2°C 30.7°F-0.7°C 57% 13.8 mph ESE22.2 kmh ESE 26.5 mph42.6 kmh 30.17 in1021.7 mb - 0.00 in0.0 mm 0.00 in0.0 mm
04:00 AM 45.1°F7.3°C 30.8°F-0.7°C 57% 16.1 mph ESE25.9 kmh ESE 25.3 mph40.7 kmh 30.17 in1021.7 mb - 0.00 in0.0 mm 0.00 in0.0 mm
04:10 AM 45.2°F7.3°C 30.8°F-0.7°C 57% 13.8 mph ESE22.2 kmh ESE 18.4 mph29.6 kmh 30.17 in1021.7 mb - 0.00 in0.0 mm 0.00 in0.0 mm
04:20 AM 45.1°F7.3°C 30.4°F-0.9°C 56% 15.0 mph E24.1 kmh E 26.5 mph42.6 kmh 30.17 in1021.7 mb - 0.00 in0.0 mm 0.00 in0.0 mm
04:30 AM 45.2°F7.3°C 30.9°F-0.6°C 57% 13.8 mph E22.2 kmh E 19.6 mph31.5 kmh 30.16 in1021.3 mb - 0.00 in0.0 mm 0.00 in0.0 mm
04:40 AM 44.9°F7.2°C 30.6°F-0.8°C 57% 13.8 mph ESE22.2 kmh ESE 20.7 mph33.3 kmh 30.15 in1021.0 mb - 0.00 in0.0 mm 0.00 in0.0 mm
04:50 AM 45.3°F7.4°C 31.0°F-0.6°C 57% 13.8 mph E22.2 kmh E 17.3 mph27.8 kmh 30.15 in1021.0 mb - 0.00 in0.0 mm 0.00 in0.0 mm
05:00 AM 45.4°F7.4°C 31.0°F-0.6°C 57% 18.4 mph ESE29.6 kmh ESE 31.1 mph50.1 kmh 30.15 in1021.0 mb - 0.00 in0.0 mm 0.00 in0.0 mm
05:10 AM 45.3°F7.4°C 31.0°F-0.6°C 57% 17.3 mph ESE27.8 kmh ESE 23.0 mph37.0 kmh 30.14 in1020.7 mb - 0.00 in0.0 mm 0.00 in0.0 mm
05:20 AM 45.4°F7.4°C 31.0°F-0.6°C 57% 18.4 mph ESE29.6 kmh ESE 23.0 mph37.0 kmh 30.14 in1020.7 mb - 0.00 in0.0 mm 0.00 in0.0 mm
05:30 AM 45.5°F7.5°C 31.1°F-0.5°C 57% 13.8 mph ESE22.2 kmh ESE 21.9 mph35.2 kmh 30.14 in1020.7 mb - 0.00 in0.0 mm 0.00 in0.0 mm
05:40 AM 45.6°F7.6°C 30.8°F-0.7°C 56% 16.1 mph E25.9 kmh E 21.9 mph35.2 kmh 30.14 in1020.7 mb - 0.00 in0.0 mm 0.00 in0.0 mm
05:50 AM 45.8°F7.7°C 31.0°F-0.6°C 56% 15.0 mph E24.1 kmh E 25.3 mph40.7 kmh 30.14 in1020.7 mb - 0.00 in0.0 mm 0.00 in0.0 mm
06:00 AM 45.8°F7.7°C 31.0°F-0.6°C 56% 12.7 mph E20.4 kmh E 16.1 mph25.9 kmh 30.14 in1020.7 mb - 0.00 in0.0 mm 0.00 in0.0 mm
06:10 AM 45.1°F7.3°C 31.6°F-0.2°C 59% 13.8 mph E22.2 kmh E 17.3 mph27.8 kmh 30.15 in1021.0 mb - 0.00 in0.0 mm 0.00 in0.0 mm
06:20 AM 45.4°F7.4°C 31.5°F-0.3°C 58% 15.0 mph ESE24.1 kmh ESE 21.9 mph35.2 kmh 30.15 in1021.0 mb - 0.00 in0.0 mm 0.00 in0.0 mm
06:30 AM 45.2°F7.3°C 31.7°F-0.2°C 59% 11.5 mph ESE18.5 kmh ESE 25.3 mph40.7 kmh 30.14 in1020.7 mb - 0.00 in0.0 mm 0.00 in0.0 mm
06:40 AM 44.9°F7.2°C 31.9°F-0.1°C 60% 11.5 mph ESE18.5 kmh ESE 17.3 mph27.8 kmh 30.14 in1020.7 mb - 0.00 in0.0 mm 0.00 in0.0 mm
06:50 AM 45.2°F7.3°C 31.7°F-0.2°C 59% 15.0 mph ESE24.1 kmh ESE 21.9 mph35.2 kmh 30.14 in1020.7 mb - 0.00 in0.0 mm 0.00 in0.0 mm
07:00 AM 45.6°F7.6°C 31.7°F-0.2°C 58% 11.5 mph ESE18.5 kmh ESE 23.0 mph37.0 kmh 30.14 in1020.7 mb - 0.00 in0.0 mm 0.00 in0.0 mm
07:10 AM 45.7°F7.6°C 31.8°F-0.1°C 58% 18.4 mph E29.6 kmh E 26.5 mph42.6 kmh 30.14 in1020.7 mb - 0.00 in0.0 mm 0.00 in0.0 mm
07:20 AM 46.0°F7.8°C 31.6°F-0.2°C 57% 13.8 mph E22.2 kmh E 20.7 mph33.3 kmh 30.14 in1020.7 mb - 0.00 in0.0 mm 0.00 in0.0 mm
07:30 AM 46.0°F7.8°C 31.6°F-0.2°C 57% 13.8 mph ESE22.2 kmh ESE 23.0 mph37.0 kmh 30.13 in1020.3 mb - 0.00 in0.0 mm 0.00 in0.0 mm
07:40 AM 45.9°F7.7°C 31.9°F-0.1°C 58% 12.7 mph ESE20.4 kmh ESE 17.3 mph27.8 kmh 30.13 in1020.3 mb - 0.00 in0.0 mm 0.00 in0.0 mm
07:50 AM 45.1°F7.3°C 32.4°F0.2°C 61% 10.4 mph ESE16.7 kmh ESE 11.5 mph18.5 kmh 30.14 in1020.7 mb - 0.00 in0.0 mm 0.00 in0.0 mm
08:00 AM 45.1°F7.3°C 32.4°F0.2°C 61% 10.4 mph ESE16.7 kmh ESE 19.6 mph31.5 kmh 30.13 in1020.3 mb - 0.00 in0.0 mm 0.00 in0.0 mm
08:10 AM 45.9°F7.7°C 31.9°F-0.1°C 58% 10.4 mph ESE16.7 kmh ESE 21.9 mph35.2 kmh 30.13 in1020.3 mb - 0.00 in0.0 mm 0.00 in0.0 mm
08:20 AM 45.1°F7.3°C 32.5°F0.3°C 61% 15.0 mph SE24.1 kmh SE 18.4 mph29.6 kmh 30.13 in1020.3 mb - 0.00 in0.0 mm 0.00 in0.0 mm
08:30 AM 45.5°F7.5°C 32.4°F0.2°C 60% 13.8 mph ESE22.2 kmh ESE 21.9 mph35.2 kmh 30.13 in1020.3 mb - 0.00 in0.0 mm 0.00 in0.0 mm
08:40 AM 44.9°F7.2°C 32.7°F0.4°C 62% 13.8 mph ESE22.2 kmh ESE 29.9 mph48.1 kmh 30.13 in1020.3 mb - 0.00 in0.0 mm 0.00 in0.0 mm
08:50 AM 44.7°F7.1°C 32.5°F0.3°C 62% 15.0 mph ESE24.1 kmh ESE 26.5 mph42.6 kmh 30.13 in1020.3 mb - 0.01 in0.3 mm 0.01 in0.3 mm
09:00 AM 45.1°F7.3°C 32.4°F0.2°C 61% 13.8 mph ESE22.2 kmh ESE 24.2 mph38.9 kmh 30.13 in1020.3 mb - 0.01 in0.3 mm 0.01 in0.3 mm
09:10 AM 44.7°F7.1°C 33.3°F0.7°C 64% 10.4 mph ESE16.7 kmh ESE 25.3 mph40.7 kmh 30.13 in1020.3 mb - 0.01 in0.3 mm 0.01 in0.3 mm
09:20 AM 44.0°F6.7°C 33.3°F0.7°C 66% 13.8 mph ESE22.2 kmh ESE 18.4 mph29.6 kmh 30.13 in1020.3 mb - 0.02 in0.5 mm 0.02 in0.5 mm
09:30 AM 44.8°F7.1°C 33.0°F0.6°C 63% 16.1 mph ESE25.9 kmh ESE 26.5 mph42.6 kmh 30.13 in1020.3 mb - 0.03 in0.8 mm 0.03 in0.8 mm
09:40 AM 45.0°F7.2°C 32.8°F0.4°C 62% 17.3 mph E27.8 kmh E 24.2 mph38.9 kmh 30.13 in1020.3 mb - 0.03 in0.8 mm 0.03 in0.8 mm
09:50 AM 44.1°F6.7°C 33.0°F0.6°C 65% 15.0 mph ESE24.1 kmh ESE 20.7 mph33.3 kmh 30.14 in1020.7 mb - 0.03 in0.8 mm 0.04 in1.0 mm
10:00 AM 43.1°F6.2°C 34.0°F1.1°C 70% 13.8 mph ESE22.2 kmh ESE 20.7 mph33.3 kmh 30.15 in1021.0 mb - 0.04 in1.0 mm 0.05 in1.3 mm
10:10 AM 42.4°F5.8°C 34.4°F1.3°C 73% 12.7 mph ESE20.4 kmh ESE 19.6 mph31.5 kmh 30.16 in1021.3 mb - 0.06 in1.5 mm 0.07 in1.8 mm
10:20 AM 42.4°F5.8°C 34.7°F1.5°C 74% 12.7 mph E20.4 kmh E 18.4 mph29.6 kmh 30.16 in1021.3 mb - 0.07 in1.8 mm 0.09 in2.3 mm
10:30 AM 41.9°F5.5°C 34.9°F1.6°C 76% 9.2 mph ESE14.8 kmh ESE 11.5 mph18.5 kmh 30.15 in1021.0 mb - 0.08 in2.0 mm 0.11 in2.8 mm
10:40 AM 41.9°F5.5°C 34.9°F1.6°C 76% 11.5 mph ESE18.5 kmh ESE 15.0 mph24.1 kmh 30.15 in1021.0 mb - 0.10 in2.5 mm 0.13 in3.3 mm
10:50 AM 41.7°F5.4°C 35.1°F1.7°C 77% 11.5 mph ESE18.5 kmh ESE 24.2 mph38.9 kmh 30.14 in1020.7 mb - 0.11 in2.8 mm 0.15 in3.8 mm
11:00 AM 41.8°F5.4°C 35.1°F1.7°C 77% 12.7 mph ESE20.4 kmh ESE 16.1 mph25.9 kmh 30.14 in1020.7 mb - 0.11 in2.8 mm 0.16 in4.1 mm
11:10 AM 41.7°F5.4°C 35.3°F1.8°C 78% 16.1 mph ESE25.9 kmh ESE 21.9 mph35.2 kmh 30.14 in1020.7 mb - 0.12 in3.0 mm 0.19 in4.8 mm
11:20 AM 41.7°F5.4°C 35.4°F1.9°C 78% 17.3 mph ESE27.8 kmh ESE 19.6 mph31.5 kmh 30.15 in1021.0 mb - 0.13 in3.3 mm 0.21 in5.3 mm
11:30 AM 41.4°F5.2°C 35.7°F2.1°C 80% 11.5 mph ESE18.5 kmh ESE 17.3 mph27.8 kmh 30.14 in1020.7 mb - 0.11 in2.8 mm 0.22 in5.6 mm
11:40 AM 41.4°F5.2°C 35.7°F2.1°C 80% 9.2 mph ESE14.8 kmh ESE 17.3 mph27.8 kmh 30.14 in1020.7 mb - 0.11 in2.8 mm 0.24 in6.1 mm
11:50 AM 41.4°F5.2°C 36.1°F2.3°C 81% 8.1 mph ESE13.0 kmh ESE 13.8 mph22.2 kmh 30.14 in1020.7 mb - 0.11 in2.8 mm 0.25 in6.4 mm
12:00 PM 41.3°F5.2°C 35.6°F2.0°C 80% 9.2 mph ESE14.8 kmh ESE 16.1 mph25.9 kmh 30.14 in1020.7 mb - 0.11 in2.8 mm 0.27 in6.9 mm
12:10 PM 41.2°F5.1°C 35.5°F1.9°C 80% 10.4 mph ESE16.7 kmh ESE 11.5 mph18.5 kmh 30.13 in1020.3 mb - 0.09 in2.3 mm 0.28 in7.1 mm
12:20 PM 41.1°F5.1°C 35.7°F2.1°C 81% 8.1 mph ESE13.0 kmh ESE 11.5 mph18.5 kmh 30.14 in1020.7 mb - 0.09 in2.3 mm 0.29 in7.4 mm
12:30 PM 41.7°F5.4°C 36.0°F2.2°C 80% 10.4 mph ESE16.7 kmh ESE 15.0 mph24.1 kmh 30.12 in1020.0 mb - 0.08 in2.0 mm 0.30 in7.6 mm
12:40 PM 42.0°F5.6°C 35.6°F2.0°C 78% 9.2 mph ESE14.8 kmh ESE 18.4 mph29.6 kmh 30.14 in1020.7 mb - 0.06 in1.5 mm 0.30 in7.6 mm
12:50 PM 41.4°F5.2°C 35.4°F1.9°C 79% 9.2 mph ESE14.8 kmh ESE 15.0 mph24.1 kmh 30.14 in1020.7 mb - 0.07 in1.8 mm 0.32 in8.1 mm
01:00 PM 41.2°F5.1°C 35.2°F1.8°C 79% 13.8 mph ESE22.2 kmh ESE 17.3 mph27.8 kmh 30.14 in1020.7 mb - 0.07 in1.8 mm 0.33 in8.4 mm
01:10 PM 41.0°F5.0°C 35.3°F1.8°C 80% 10.4 mph SE16.7 kmh SE 13.8 mph22.2 kmh 30.14 in1020.7 mb - 0.07 in1.8 mm 0.35 in8.9 mm
01:20 PM 40.7°F4.8°C 35.3°F1.8°C 81% 10.4 mph ESE16.7 kmh ESE 12.7 mph20.4 kmh 30.14 in1020.7 mb - 0.08 in2.0 mm 0.37 in9.4 mm
01:30 PM 40.7°F4.8°C 35.6°F2.0°C 82% 10.4 mph ESE16.7 kmh ESE 16.1 mph25.9 kmh 30.14 in1020.7 mb - 0.08 in2.0 mm 0.38 in9.7 mm
01:40 PM 40.7°F4.8°C 35.4°F1.9°C 81% 12.7 mph E20.4 kmh E 16.1 mph25.9 kmh 30.15 in1021.0 mb - 0.09 in2.3 mm 0.39 in9.9 mm
01:50 PM 40.3°F4.6°C 35.3°F1.8°C 82% 10.4 mph ESE16.7 kmh ESE 19.6 mph31.5 kmh 30.15 in1021.0 mb - 0.09 in2.3 mm 0.41 in10.4 mm
02:00 PM 39.8°F4.3°C 35.4°F1.9°C 84% 8.1 mph SE13.0 kmh SE 11.5 mph18.5 kmh 30.15 in1021.0 mb - 0.09 in2.3 mm 0.42 in10.7 mm
02:10 PM 39.6°F4.2°C 35.2°F1.8°C 84% 12.7 mph ESE20.4 kmh ESE 18.4 mph29.6 kmh 30.14 in1020.7 mb - 0.08 in2.0 mm 0.43 in10.9 mm
02:20 PM 39.4°F4.1°C 35.3°F1.8°C 85% 11.5 mph SE18.5 kmh SE 17.3 mph27.8 kmh 30.14 in1020.7 mb - 0.08 in2.0 mm 0.45 in11.4 mm
02:30 PM 39.3°F4.1°C 35.2°F1.8°C 85% 11.5 mph E18.5 kmh E 18.4 mph29.6 kmh 30.14 in1020.7 mb - 0.08 in2.0 mm 0.46 in11.7 mm
02:40 PM 39.2°F4.0°C 35.1°F1.7°C 85% 12.7 mph SE20.4 kmh SE 19.6 mph31.5 kmh 30.14 in1020.7 mb - 0.09 in2.3 mm 0.48 in12.2 mm
02:50 PM 38.9°F3.8°C 34.8°F1.6°C 85% 13.8 mph SE22.2 kmh SE 20.7 mph33.3 kmh 30.13 in1020.3 mb - 0.10 in2.5 mm 0.50 in12.7 mm
03:00 PM 38.8°F3.8°C 35.0°F1.7°C 86% 11.5 mph ESE18.5 kmh ESE 21.9 mph35.2 kmh 30.13 in1020.3 mb - 0.11 in2.8 mm 0.53 in13.5 mm
03:10 PM 38.7°F3.7°C 34.9°F1.6°C 86% 11.5 mph ESE18.5 kmh ESE 16.1 mph25.9 kmh 30.12 in1020.0 mb - 0.12 in3.0 mm 0.55 in14.0 mm
03:20 PM 38.5°F3.6°C 34.7°F1.5°C 86% 9.2 mph SE14.8 kmh SE 10.4 mph16.7 kmh 30.12 in1020.0 mb - 0.12 in3.0 mm 0.57 in14.5 mm
03:30 PM 38.8°F3.8°C 35.0°F1.7°C 86% 12.7 mph SE20.4 kmh SE 17.3 mph27.8 kmh 30.12 in1020.0 mb - 0.14 in3.6 mm 0.60 in15.2 mm
03:40 PM 38.8°F3.8°C 35.0°F1.7°C 86% 10.4 mph ESE16.7 kmh ESE 13.8 mph22.2 kmh 30.11 in1019.6 mb - 0.13 in3.3 mm 0.61 in15.5 mm
03:50 PM 38.6°F3.7°C 34.8°F1.6°C 86% 11.5 mph ESE18.5 kmh ESE 16.1 mph25.9 kmh 30.11 in1019.6 mb - 0.14 in3.6 mm 0.64 in16.3 mm
04:00 PM 38.5°F3.6°C 35.0°F1.7°C 87% 10.4 mph SE16.7 kmh SE 12.7 mph20.4 kmh 30.11 in1019.6 mb - 0.14 in3.6 mm 0.66 in16.8 mm
04:10 PM 39.1°F3.9°C 35.3°F1.8°C 86% 13.8 mph ESE22.2 kmh ESE 18.4 mph29.6 kmh 30.10 in1019.3 mb - 0.12 in3.0 mm 0.67 in17.0 mm
04:20 PM 38.5°F3.6°C 35.0°F1.7°C 87% 9.2 mph SE14.8 kmh SE 17.3 mph27.8 kmh 30.11 in1019.6 mb - 0.12 in3.0 mm 0.69 in17.5 mm
04:30 PM 38.4°F3.6°C 34.6°F1.4°C 86% 12.7 mph SE20.4 kmh SE 18.4 mph29.6 kmh 30.10 in1019.3 mb - 0.11 in2.8 mm 0.70 in17.8 mm
04:40 PM 38.6°F3.7°C 34.8°F1.6°C 86% 11.5 mph ESE18.5 kmh ESE 13.8 mph22.2 kmh 30.10 in1019.3 mb - 0.11 in2.8 mm 0.72 in18.3 mm
04:50 PM 38.6°F3.7°C 34.8°F1.6°C 86% 11.5 mph SE18.5 kmh SE 13.8 mph22.2 kmh 30.10 in1019.3 mb - 0.09 in2.3 mm 0.73 in18.5 mm
05:00 PM 38.7°F3.7°C 34.9°F1.6°C 86% 11.5 mph SE18.5 kmh SE 15.0 mph24.1 kmh 30.10 in1019.3 mb - 0.10 in2.5 mm 0.76 in19.3 mm
05:10 PM 38.5°F3.6°C 34.7°F1.5°C 86% 10.4 mph SE16.7 kmh SE 13.8 mph22.2 kmh 30.10 in1019.3 mb - 0.10 in2.5 mm 0.77 in19.6 mm
05:20 PM 38.3°F3.5°C 34.8°F1.6°C 87% 11.5 mph SE18.5 kmh SE 17.3 mph27.8 kmh 30.10 in1019.3 mb - 0.11 in2.8 mm 0.80 in20.3 mm
05:30 PM 38.2°F3.4°C 34.7°F1.5°C 87% 13.8 mph SE22.2 kmh SE 20.7 mph33.3 kmh 30.10 in1019.3 mb - 0.12 in3.0 mm 0.82 in20.8 mm
05:40 PM 38.1°F3.4°C 34.6°F1.4°C 87% 9.2 mph SE14.8 kmh SE 13.8 mph22.2 kmh 30.10 in1019.3 mb - 0.13 in3.3 mm 0.84 in21.3 mm
05:50 PM 38.3°F3.5°C 34.8°F1.6°C 87% 9.2 mph SE14.8 kmh SE 20.7 mph33.3 kmh 30.10 in1019.3 mb - 0.14 in3.6 mm 0.87 in22.1 mm
06:00 PM 38.2°F3.4°C 34.7°F1.5°C 87% 9.2 mph ESE14.8 kmh ESE 16.1 mph25.9 kmh 30.10 in1019.3 mb - 0.13 in3.3 mm 0.89 in22.6 mm
06:10 PM 38.1°F3.4°C 34.9°F1.6°C 88% 11.5 mph SE18.5 kmh SE 16.1 mph25.9 kmh 30.10 in1019.3 mb - 0.14 in3.6 mm 0.91 in23.1 mm
06:20 PM 38.1°F3.4°C 34.6°F1.4°C 87% 12.7 mph SE20.4 kmh SE 20.7 mph33.3 kmh 30.10 in1019.3 mb - 0.14 in3.6 mm 0.93 in23.6 mm
06:30 PM 38.0°F3.3°C 34.8°F1.6°C 88% 9.2 mph ESE14.8 kmh ESE 15.0 mph24.1 kmh 30.11 in1019.6 mb - 0.14 in3.6 mm 0.96 in24.4 mm
06:40 PM 38.2°F3.4°C 34.7°F1.5°C 87% 9.2 mph SE14.8 kmh SE 18.4 mph29.6 kmh 30.10 in1019.3 mb - 0.13 in3.3 mm 0.97 in24.6 mm
06:50 PM 38.1°F3.4°C 34.6°F1.4°C 87% 10.4 mph SE16.7 kmh SE 17.3 mph27.8 kmh 30.10 in1019.3 mb - 0.13 in3.3 mm 0.99 in25.1 mm
07:00 PM 38.4°F3.6°C 34.8°F1.6°C 87% 10.4 mph SE16.7 kmh SE 13.8 mph22.2 kmh 30.10 in1019.3 mb - 0.11 in2.8 mm 1.00 in25.4 mm
07:10 PM 38.1°F3.4°C 34.9°F1.6°C 88% 11.5 mph ESE18.5 kmh ESE 16.1 mph25.9 kmh 30.10 in1019.3 mb - 0.10 in2.5 mm 1.01 in25.7 mm
07:20 PM 38.1°F3.4°C 34.6°F1.4°C 87% 12.7 mph SE20.4 kmh SE 17.3 mph27.8 kmh 30.10 in1019.3 mb - 0.09 in2.3 mm 1.02 in25.9 mm
07:30 PM 38.1°F3.4°C 34.6°F1.4°C 87% 12.7 mph SE20.4 kmh SE 19.6 mph31.5 kmh 30.09 in1019.0 mb - 0.08 in2.0 mm 1.03 in26.2 mm
07:40 PM 38.1°F3.4°C 34.6°F1.4°C 87% 11.5 mph SE18.5 kmh SE 19.6 mph31.5 kmh 30.10 in1019.3 mb - 0.06 in1.5 mm 1.03 in26.2 mm
07:50 PM 38.2°F3.4°C 34.6°F1.4°C 87% 10.4 mph ESE16.7 kmh ESE 18.4 mph29.6 kmh 30.11 in1019.6 mb - 0.05 in1.3 mm 1.04 in26.4 mm
08:00 PM 38.1°F3.4°C 34.6°F1.4°C 87% 8.1 mph SE13.0 kmh SE 13.8 mph22.2 kmh 30.11 in1019.6 mb - 0.06 in1.5 mm 1.06 in26.9 mm
08:10 PM 38.3°F3.5°C 34.8°F1.6°C 87% 12.7 mph SE20.4 kmh SE 17.3 mph27.8 kmh 30.12 in1020.0 mb - 0.06 in1.5 mm 1.07 in27.2 mm
08:20 PM 38.3°F3.5°C 34.8°F1.6°C 87% 10.4 mph SE16.7 kmh SE 19.6 mph31.5 kmh 30.12 in1020.0 mb - 0.06 in1.5 mm 1.08 in27.4 mm
08:30 PM 38.2°F3.4°C 34.7°F1.5°C 87% 11.5 mph ESE18.5 kmh ESE 15.0 mph24.1 kmh 30.12 in1020.0 mb - 0.06 in1.5 mm 1.09 in27.7 mm
08:40 PM 38.2°F3.4°C 34.7°F1.5°C 87% 13.8 mph SE22.2 kmh SE 25.3 mph40.7 kmh 30.12 in1020.0 mb - 0.07 in1.8 mm 1.10 in27.9 mm
08:50 PM 38.2°F3.4°C 34.7°F1.5°C 87% 10.4 mph SE16.7 kmh SE 19.6 mph31.5 kmh 30.12 in1020.0 mb - 0.07 in1.8 mm 1.11 in28.2 mm
09:00 PM 38.2°F3.4°C 34.7°F1.5°C 87% 10.4 mph SE16.7 kmh SE 16.1 mph25.9 kmh 30.13 in1020.3 mb - 0.06 in1.5 mm 1.12 in28.4 mm
09:10 PM 38.2°F3.4°C 34.7°F1.5°C 87% 12.7 mph ESE20.4 kmh ESE 17.3 mph27.8 kmh 30.13 in1020.3 mb - 0.07 in1.8 mm 1.14 in29.0 mm
09:20 PM 38.1°F3.4°C 34.6°F1.4°C 87% 10.4 mph ESE16.7 kmh ESE 11.5 mph18.5 kmh 30.13 in1020.3 mb - 0.08 in2.0 mm 1.16 in29.5 mm
09:30 PM 37.9°F3.3°C 34.7°F1.5°C 88% 15.0 mph SE24.1 kmh SE 21.9 mph35.2 kmh 30.13 in1020.3 mb - 0.08 in2.0 mm 1.17 in29.7 mm
09:40 PM 37.9°F3.3°C 34.7°F1.5°C 88% 11.5 mph ESE18.5 kmh ESE 12.7 mph20.4 kmh 30.14 in1020.7 mb - 0.08 in2.0 mm 1.18 in30.0 mm
09:50 PM 37.9°F3.3°C 34.4°F1.3°C 87% 9.2 mph ESE14.8 kmh ESE 13.8 mph22.2 kmh 30.14 in1020.7 mb - 0.07 in1.8 mm 1.18 in30.0 mm
10:00 PM 38.0°F3.3°C 34.5°F1.4°C 87% 10.4 mph ESE16.7 kmh ESE 11.5 mph18.5 kmh 30.14 in1020.7 mb - 0.08 in2.0 mm 1.19 in30.2 mm
10:10 PM 37.8°F3.2°C 34.3°F1.3°C 87% 11.5 mph SE18.5 kmh SE 16.1 mph25.9 kmh 30.14 in1020.7 mb - 0.05 in1.3 mm 1.19 in30.2 mm
10:20 PM 37.8°F3.2°C 34.3°F1.3°C 87% 10.4 mph SE16.7 kmh SE 12.7 mph20.4 kmh 30.14 in1020.7 mb - 0.04 in1.0 mm 1.19 in30.2 mm
10:30 PM 37.8°F3.2°C 34.3°F1.3°C 87% 10.4 mph SE16.7 kmh SE 15.0 mph24.1 kmh 30.14 in1020.7 mb - 0.02 in0.5 mm 1.19 in30.2 mm
10:40 PM 37.9°F3.3°C 34.3°F1.3°C 87% 15.0 mph ESE24.1 kmh ESE 19.6 mph31.5 kmh 30.14 in1020.7 mb - 0.02 in0.5 mm 1.20 in30.5 mm
10:50 PM 37.9°F3.3°C 34.1°F1.2°C 86% 11.5 mph ESE18.5 kmh ESE 13.8 mph22.2 kmh 30.15 in1021.0 mb - 0.02 in0.5 mm 1.20 in30.5 mm
11:00 PM 38.1°F3.4°C 34.0°F1.1°C 85% 12.7 mph SE20.4 kmh SE 19.6 mph31.5 kmh 30.15 in1021.0 mb - 0.01 in0.3 mm 1.20 in30.5 mm
11:10 PM 38.3°F3.5°C 33.8°F1.0°C 84% 11.5 mph ESE18.5 kmh ESE 19.6 mph31.5 kmh 30.15 in1021.0 mb - 0.01 in0.3 mm 1.20 in30.5 mm
11:20 PM 38.3°F3.5°C 33.9°F1.1°C 84% 11.5 mph E18.5 kmh E 19.6 mph31.5 kmh 30.15 in1021.0 mb - 0.01 in0.3 mm 1.20 in30.5 mm
11:30 PM 38.1°F3.4°C 33.7°F0.9°C 84% 12.7 mph ESE20.4 kmh ESE 17.3 mph27.8 kmh 30.15 in1021.0 mb - 0.01 in0.3 mm 1.20 in30.5 mm
11:40 PM 38.3°F3.5°C 33.6°F0.9°C 83% 13.8 mph SE22.2 kmh SE 17.3 mph27.8 kmh 30.15 in1021.0 mb - 0.00 in0.0 mm 1.20 in30.5 mm
11:50 PM 38.4°F3.6°C 33.7°F0.9°C 83% 10.4 mph SE16.7 kmh SE 17.3 mph27.8 kmh 30.16 in1021.3 mb - 0.00 in0.0 mm 1.20 in30.5 mm